createdAt,value
2022-09-04T00:01:52.396Z,2.20
2022-09-04T00:04:35.685Z,1.90
2022-09-04T00:07:19.367Z,1.90
2022-09-04T00:10:04.215Z,1.90
2022-09-04T00:12:42.349Z,1.90
2022-09-04T00:15:19.712Z,1.90
2022-09-04T00:17:57.635Z,2.20
2022-09-04T00:20:37.480Z,1.90
2022-09-04T00:23:18.276Z,1.80
2022-09-04T00:25:59.311Z,2.20
2022-09-04T00:28:36.296Z,3.30
2022-09-04T00:31:19.424Z,2.00
2022-09-04T00:34:01.960Z,2.10
2022-09-04T00:36:36.301Z,1.90
2022-09-04T00:39:14.120Z,2.20
2022-09-04T00:41:59.438Z,2.30
2022-09-04T00:44:59.810Z,2.30
2022-09-04T00:47:58.966Z,2.20
2022-09-04T00:50:42.966Z,2.30
2022-09-04T00:53:35.867Z,2.20
2022-09-04T00:56:30.161Z,2.50
2022-09-04T00:59:16.629Z,2.00
2022-09-04T01:01:52.119Z,2.20
2022-09-04T01:04:42.041Z,2.50
2022-09-04T01:07:35.420Z,2.20
2022-09-04T01:10:41.978Z,2.00
2022-09-04T01:13:21.026Z,2.40
2022-09-04T01:16:01.639Z,2.40
2022-09-04T01:18:41.918Z,2.20
2022-09-04T01:21:51.580Z,2.80
2022-09-04T01:24:42.734Z,2.60
2022-09-04T01:27:23.209Z,2.50
2022-09-04T01:30:05.309Z,2.40
2022-09-04T01:32:54.538Z,2.60
2022-09-04T01:35:34.353Z,2.40
2022-09-04T01:38:16.619Z,2.40
2022-09-04T01:40:54.857Z,2.60
2022-09-04T01:43:27.188Z,2.60
2022-09-04T01:46:21.811Z,2.60
2022-09-04T01:49:00.403Z,2.60
2022-09-04T01:51:40.332Z,2.50
2022-09-04T01:54:37.539Z,2.60
2022-09-04T01:57:24.025Z,2.70
2022-09-04T02:00:08.101Z,2.50
2022-09-04T02:02:55.767Z,2.80
2022-09-04T02:05:38.624Z,3.20
2022-09-04T02:08:30.340Z,2.70
2022-09-04T02:11:08.852Z,2.80
2022-09-04T02:14:02.257Z,3.20
2022-09-04T02:16:43.642Z,2.50
2022-09-04T02:19:29.269Z,3.20
2022-09-04T02:22:07.822Z,2.80
2022-09-04T02:24:47.388Z,2.70
2022-09-04T02:27:28.865Z,3.10
2022-09-04T02:30:08.217Z,3.40
2022-09-04T02:32:47.431Z,2.70
2022-09-04T02:35:26.449Z,2.60
2022-09-04T02:38:11.972Z,3.00
2022-09-04T02:40:51.579Z,3.00
2022-09-04T02:43:37.116Z,2.90
2022-09-04T02:46:15.919Z,3.50
2022-09-04T02:49:03.551Z,2.80
2022-09-04T02:51:49.466Z,3.10
2022-09-04T02:54:34.440Z,3.00
2022-09-04T02:57:15.978Z,3.20
2022-09-04T03:00:05.016Z,3.60
2022-09-04T03:02:42.684Z,3.70
2022-09-04T03:05:20.738Z,3.30
2022-09-04T03:07:59.735Z,3.30
2022-09-04T03:10:37.997Z,3.20
2022-09-04T03:13:15.812Z,3.00
2022-09-04T03:15:51.635Z,3.80
2022-09-04T03:18:30.245Z,3.60
2022-09-04T03:21:09.221Z,3.30
2022-09-04T03:23:47.820Z,3.50
2022-09-04T03:26:24.439Z,3.70
2022-09-04T03:29:10.282Z,4.10
2022-09-04T03:31:52.135Z,3.60
2022-09-04T03:34:37.797Z,3.30
2022-09-04T03:37:26.252Z,3.10
2022-09-04T03:40:12.726Z,3.70
2022-09-04T03:42:56.446Z,3.30
2022-09-04T03:45:38.308Z,3.40
2022-09-04T03:48:19.437Z,3.90
2022-09-04T03:50:58.796Z,3.60
2022-09-04T03:53:39.397Z,3.80
2022-09-04T03:56:44.541Z,3.50
2022-09-04T03:59:29.335Z,3.70
2022-09-04T04:02:12.345Z,3.80
2022-09-04T04:05:06.778Z,3.40
2022-09-04T04:07:47.034Z,4.10
2022-09-04T04:10:33.662Z,4.10
2022-09-04T04:13:37.886Z,4.10
2022-09-04T04:16:25.974Z,4.60
2022-09-04T04:19:12.076Z,4.50
2022-09-04T04:21:56.034Z,3.70
2022-09-04T04:24:48.276Z,3.80
2022-09-04T04:27:36.100Z,4.90
2022-09-04T04:30:14.496Z,3.90
2022-09-04T04:33:08.198Z,4.80
2022-09-04T04:35:50.515Z,3.70
2022-09-04T04:38:34.465Z,5.00
2022-09-04T04:41:21.567Z,3.90
2022-09-04T04:44:08.049Z,4.40
2022-09-04T04:46:55.488Z,5.70
2022-09-04T04:49:49.177Z,4.20
2022-09-04T04:52:46.079Z,4.50
2022-09-04T04:55:31.413Z,5.00
2022-09-04T04:58:30.094Z,4.60
2022-09-04T05:01:09.759Z,4.30
2022-09-04T05:03:56.082Z,5.20
2022-09-04T05:06:37.538Z,4.50
2022-09-04T05:09:21.249Z,4.60
2022-09-04T05:12:02.296Z,4.30
2022-09-04T05:14:49.224Z,4.70
2022-09-04T05:17:31.119Z,5.20
2022-09-04T05:20:21.628Z,4.10
2022-09-04T05:23:05.658Z,4.60
2022-09-04T05:25:46.862Z,5.00
2022-09-04T05:28:32.668Z,4.40
2022-09-04T05:31:21.043Z,5.70
2022-09-04T05:34:03.505Z,5.00
2022-09-04T05:36:45.918Z,5.00
2022-09-04T05:39:27.549Z,4.60
2022-09-04T05:42:39.277Z,4.40
2022-09-04T05:45:23.889Z,5.90
2022-09-04T05:48:05.242Z,5.30
2022-09-04T05:50:55.363Z,6.60
2022-09-04T05:53:43.159Z,5.00
2022-09-04T05:56:33.371Z,5.10
2022-09-04T05:59:27.716Z,5.60
2022-09-04T06:02:17.728Z,5.70
2022-09-04T06:05:19.115Z,6.20
2022-09-04T06:08:00.280Z,5.60
2022-09-04T06:10:45.072Z,5.00
2022-09-04T06:13:44.009Z,5.20
2022-09-04T06:16:32.799Z,5.20
2022-09-04T06:19:30.035Z,5.60
2022-09-04T06:22:25.718Z,5.10
2022-09-04T06:25:25.482Z,5.60
2022-09-04T06:28:25.932Z,5.90
2022-09-04T06:31:09.761Z,5.20
2022-09-04T06:34:03.998Z,6.10
2022-09-04T06:37:05.441Z,5.70
2022-09-04T06:39:52.016Z,5.60
2022-09-04T06:42:37.392Z,6.30
2022-09-04T06:45:26.558Z,6.10
2022-09-04T06:48:10.404Z,6.00
2022-09-04T06:50:53.957Z,5.60
2022-09-04T06:53:39.272Z,6.10
2022-09-04T06:56:24.737Z,5.80
2022-09-04T06:59:09.369Z,6.80
2022-09-04T07:01:50.552Z,7.00
2022-09-04T07:04:38.367Z,6.70
2022-09-04T07:07:19.393Z,6.70
2022-09-04T07:09:59.907Z,6.40
2022-09-04T07:13:09.908Z,5.80
2022-09-04T07:16:15.750Z,6.50
2022-09-04T07:19:03.468Z,5.60
2022-09-04T07:21:44.167Z,5.90
2022-09-04T07:24:43.746Z,5.30
2022-09-04T07:27:24.361Z,5.50
2022-09-04T07:30:03.441Z,5.60
2022-09-04T07:32:41.751Z,5.50
2022-09-04T07:35:20.185Z,4.60
2022-09-04T07:37:58.703Z,5.30
2022-09-04T07:40:38.406Z,5.10
2022-09-04T07:43:20.408Z,6.10
2022-09-04T07:46:05.498Z,5.20
2022-09-04T07:48:43.909Z,5.80
2022-09-04T07:51:19.816Z,4.60
2022-09-04T07:54:25.359Z,4.00
2022-09-04T07:57:18.091Z,4.60
2022-09-04T08:00:02.561Z,4.00
2022-09-04T08:03:04.542Z,4.30
2022-09-04T08:05:41.279Z,3.90
2022-09-04T08:08:29.652Z,3.80
2022-09-04T08:11:15.421Z,4.50
2022-09-04T08:14:13.763Z,4.90
2022-09-04T08:16:56.658Z,4.30
2022-09-04T08:22:10.414Z,3.60
2022-09-04T08:25:10.621Z,3.70
2022-09-04T08:28:01.552Z,5.00
2022-09-04T08:30:41.020Z,3.80
2022-09-04T08:33:39.205Z,4.30
2022-09-04T08:36:25.296Z,4.90
2022-09-04T08:39:07.618Z,4.20
2022-09-04T08:42:20.229Z,4.10
2022-09-04T08:48:19.283Z,4.00
2022-09-04T08:51:17.126Z,3.70
2022-09-04T08:54:31.312Z,3.60
2022-09-04T08:57:27.691Z,3.40
2022-09-04T09:00:12.579Z,3.60
2022-09-04T09:03:08.516Z,3.90
2022-09-04T09:06:21.199Z,3.30
2022-09-04T09:09:25.418Z,3.60
2022-09-04T09:12:40.759Z,3.70
2022-09-04T09:15:41.760Z,3.90
2022-09-04T09:18:37.106Z,3.70
2022-09-04T09:21:23.704Z,4.00
2022-09-04T09:24:34.875Z,4.00
2022-09-04T09:27:28.564Z,4.00
2022-09-04T09:30:09.842Z,4.40
2022-09-04T09:33:25.386Z,3.70
2022-09-04T09:36:36.676Z,4.60
2022-09-04T09:39:44.475Z,3.90
2022-09-04T09:42:55.488Z,4.10
2022-09-04T09:45:52.549Z,4.10
2022-09-04T09:48:59.427Z,4.20
2022-09-04T09:52:05.571Z,3.90
2022-09-04T09:55:07.503Z,4.80
2022-09-04T09:58:09.083Z,4.80
2022-09-04T10:00:57.164Z,4.60
2022-09-04T10:03:55.936Z,4.00
2022-09-04T10:07:10.526Z,4.50
2022-09-04T10:10:19.945Z,4.70
2022-09-04T10:13:27.217Z,4.20
2022-09-04T10:16:20.648Z,4.90
2022-09-04T10:19:30.303Z,5.60
2022-09-04T10:22:20.037Z,5.30
2022-09-04T10:25:25.084Z,4.60
2022-09-04T10:28:20.325Z,4.60
2022-09-04T10:31:37.575Z,4.60
2022-09-04T10:34:25.047Z,5.00
2022-09-04T10:37:18.043Z,4.90
2022-09-04T10:40:20.799Z,4.60
2022-09-04T10:43:09.695Z,4.20
2022-09-04T10:45:46.766Z,4.40
2022-09-04T10:48:53.905Z,4.80
2022-09-04T10:51:49.650Z,5.00
2022-09-04T10:54:48.123Z,4.60
2022-09-04T10:57:39.553Z,5.30
2022-09-04T11:00:14.377Z,4.90
2022-09-04T11:03:13.903Z,4.40
2022-09-04T11:06:15.862Z,4.40
2022-09-04T11:09:18.339Z,5.40
2022-09-04T11:12:09.484Z,4.80
2022-09-04T11:15:27.645Z,4.40
2022-09-04T11:18:17.750Z,5.10
2022-09-04T11:21:22.920Z,4.80
2022-09-04T11:24:35.329Z,4.50
2022-09-04T11:27:40.165Z,4.70
2022-09-04T11:30:20.437Z,4.40
2022-09-04T11:33:37.260Z,4.60
2022-09-04T11:36:50.642Z,4.90
2022-09-04T11:42:33.894Z,4.20
2022-09-04T11:45:33.443Z,5.00
2022-09-04T11:48:41.176Z,4.40
2022-09-04T11:51:39.539Z,4.90
2022-09-04T11:54:38.069Z,4.50
2022-09-04T11:57:17.494Z,5.40
2022-09-04T12:00:07.558Z,4.80
2022-09-04T12:03:06.294Z,4.80
2022-09-04T12:05:53.045Z,4.50
2022-09-04T12:08:51.975Z,4.90
2022-09-04T12:12:11.079Z,4.60
2022-09-04T12:15:22.309Z,4.50
2022-09-04T12:18:21.186Z,4.90
2022-09-04T12:21:21.269Z,4.90
2022-09-04T12:24:14.062Z,5.50
2022-09-04T12:27:13.908Z,5.70
2022-09-04T12:30:06.268Z,4.80
2022-09-04T12:32:55.486Z,4.40
2022-09-04T12:35:44.621Z,4.40
2022-09-04T12:38:37.813Z,5.00
2022-09-04T12:43:56.605Z,4.30
2022-09-04T12:46:50.459Z,4.30
2022-09-04T12:50:10.396Z,4.90
2022-09-04T12:52:57.480Z,4.80
2022-09-04T12:55:36.306Z,4.90
2022-09-04T12:58:21.486Z,4.50
2022-09-04T13:01:10.635Z,4.80
2022-09-04T13:03:52.497Z,6.30
2022-09-04T13:06:35.455Z,4.00
2022-09-04T13:09:19.644Z,4.50
2022-09-04T13:12:04.216Z,4.50
2022-09-04T13:15:19.387Z,4.80
2022-09-04T13:18:00.505Z,4.70
2022-09-04T13:20:43.866Z,5.70
2022-09-04T13:23:42.803Z,5.40
2022-09-04T13:26:34.878Z,4.70
2022-09-04T13:29:17.342Z,5.20
2022-09-04T13:32:26.592Z,5.50
2022-09-04T13:35:15.982Z,5.00
2022-09-04T13:38:08.555Z,5.20
2022-09-04T13:41:09.554Z,6.00
2022-09-04T13:44:09.371Z,5.60
2022-09-04T13:46:45.204Z,5.50
2022-09-04T13:49:24.207Z,5.00
2022-09-04T13:52:02.335Z,5.30
2022-09-04T13:54:40.786Z,4.50
2022-09-04T13:57:17.675Z,4.70
2022-09-04T13:59:52.014Z,5.30
2022-09-04T14:02:27.708Z,5.40
2022-09-04T14:05:07.091Z,4.60
2022-09-04T14:07:45.292Z,4.80
2022-09-04T14:10:21.893Z,4.20
2022-09-04T14:13:11.547Z,5.00
2022-09-04T14:16:01.912Z,4.90
2022-09-04T14:18:55.903Z,5.60
2022-09-04T14:21:42.606Z,5.60
2022-09-04T14:24:25.071Z,4.70
2022-09-04T14:29:46.894Z,4.80
2022-09-04T14:32:33.109Z,5.70
2022-09-04T14:35:17.021Z,4.80
2022-09-04T14:38:07.429Z,5.80
2022-09-04T14:40:47.013Z,5.10
2022-09-04T14:43:32.637Z,5.20
2022-09-04T14:46:16.297Z,5.10
2022-09-04T14:49:01.111Z,5.70
2022-09-04T14:51:40.003Z,5.30
2022-09-04T14:54:18.301Z,4.50
2022-09-04T14:56:54.210Z,5.40
2022-09-04T14:59:33.174Z,5.40
2022-09-04T15:02:23.722Z,5.60
2022-09-04T15:05:03.146Z,6.10
2022-09-04T15:08:06.840Z,5.40
2022-09-04T15:10:49.991Z,5.80
2022-09-04T15:13:39.055Z,5.80
2022-09-04T15:16:20.545Z,4.90
2022-09-04T15:19:08.605Z,4.90
2022-09-04T15:21:51.608Z,5.40
2022-09-04T15:24:28.526Z,4.80
2022-09-04T15:27:12.771Z,4.50
2022-09-04T15:30:03.392Z,5.00
2022-09-04T15:32:41.840Z,5.30
2022-09-04T15:35:22.944Z,5.10
2022-09-04T15:38:08.042Z,5.30
2022-09-04T15:41:12.628Z,5.20
2022-09-04T15:43:44.477Z,4.90
2022-09-04T15:46:25.251Z,5.20
2022-09-04T15:49:14.040Z,5.00
2022-09-04T15:51:51.922Z,4.60
2022-09-04T15:54:31.451Z,5.60
2022-09-04T15:57:14.617Z,6.60
2022-09-04T15:59:53.417Z,5.20
2022-09-04T16:02:36.409Z,4.80
2022-09-04T16:05:23.095Z,4.70
2022-09-04T16:08:05.391Z,4.90
2022-09-04T16:10:53.299Z,4.90
2022-09-04T16:13:54.063Z,4.60
2022-09-04T16:16:35.704Z,4.80
2022-09-04T16:19:15.933Z,5.10
2022-09-04T16:21:55.443Z,5.20
2022-09-04T16:24:35.799Z,5.50
2022-09-04T16:27:13.064Z,5.10
2022-09-04T16:29:51.137Z,5.00
2022-09-04T16:32:27.292Z,5.70
2022-09-04T16:35:04.965Z,5.80
2022-09-04T16:37:43.185Z,5.00
2022-09-04T16:40:31.369Z,5.90
2022-09-04T16:43:17.638Z,4.90
2022-09-04T16:46:07.109Z,5.70
2022-09-04T16:48:47.993Z,6.20
2022-09-04T16:51:41.334Z,5.60
2022-09-04T16:54:28.646Z,6.00
2022-09-04T16:57:13.661Z,6.00
2022-09-04T16:59:50.972Z,5.40
2022-09-04T17:02:36.309Z,6.50
2022-09-04T17:05:21.530Z,6.80
2022-09-04T17:08:05.888Z,6.10
2022-09-04T17:10:46.607Z,6.30
2022-09-04T17:13:27.695Z,6.50
2022-09-04T17:16:05.099Z,5.30
2022-09-04T17:18:41.029Z,6.50
2022-09-04T17:24:25.284Z,6.80
2022-09-04T17:29:08.245Z,7.60
2022-09-04T17:29:17.346Z,6.50
2022-09-04T17:30:40.233Z,6.80
2022-09-04T17:36:24.979Z,7.90
2022-09-04T17:40:48.267Z,7.80
2022-09-04T17:40:53.290Z,6.90
2022-09-04T17:42:21.730Z,11.20
2022-09-04T17:47:41.683Z,6.80
2022-09-04T17:50:17.641Z,9.10
2022-09-04T17:53:01.752Z,6.40
2022-09-04T17:55:38.770Z,6.10
2022-09-04T17:58:33.224Z,6.60
2022-09-04T18:01:14.343Z,5.60
2022-09-04T18:04:20.661Z,6.50
2022-09-04T18:07:39.627Z,6.90
2022-09-04T18:10:08.622Z,8.00
2022-09-04T18:12:47.096Z,9.00
2022-09-04T18:15:33.899Z,8.00
2022-09-04T18:18:14.187Z,9.50
2022-09-04T18:20:52.217Z,7.20
2022-09-04T18:23:51.944Z,7.60
2022-09-04T18:26:40.045Z,9.60
2022-09-04T18:31:44.346Z,7.50
2022-09-04T18:37:19.632Z,8.00
2022-09-04T18:37:25.486Z,7.30
2022-09-04T18:39:08.872Z,8.20
2022-09-04T18:50:25.101Z,9.10
2022-09-04T18:50:31.400Z,8.80
2022-09-04T18:50:38.909Z,7.40
2022-09-04T18:51:19.440Z,9.90
2022-09-04T18:53:57.446Z,7.80
2022-09-04T18:56:34.174Z,7.90
2022-09-04T18:59:12.892Z,7.00
2022-09-04T19:01:50.417Z,8.30
2022-09-04T19:04:47.842Z,8.60
2022-09-04T19:07:31.758Z,7.90
2022-09-04T19:10:26.359Z,8.10
2022-09-04T19:13:08.243Z,7.80
2022-09-04T19:16:04.250Z,7.50
2022-09-04T19:18:48.240Z,8.80
2022-09-04T19:21:36.305Z,9.10
2022-09-04T19:24:22.267Z,8.10
2022-09-04T19:27:27.318Z,7.20
2022-09-04T19:30:18.585Z,9.30
2022-09-04T19:33:04.683Z,7.90
2022-09-04T19:35:49.801Z,9.20
2022-09-04T19:45:56.555Z,8.80
2022-09-04T19:46:00.060Z,8.30
2022-09-04T19:46:14.941Z,8.30
2022-09-04T19:47:33.590Z,7.80
2022-09-04T19:53:19.182Z,6.80
2022-09-04T19:53:34.262Z,7.10
2022-09-04T19:56:22.590Z,8.60
2022-09-04T19:59:01.665Z,6.50
2022-09-04T20:01:43.921Z,8.40
2022-09-04T20:04:30.106Z,7.00
2022-09-04T20:07:05.801Z,6.80
2022-09-04T20:09:43.276Z,6.40
2022-09-04T20:12:25.279Z,7.00
2022-09-04T20:15:02.735Z,6.70
2022-09-04T20:17:47.642Z,8.30
2022-09-04T20:20:23.062Z,6.30
2022-09-04T20:23:00.001Z,6.80
2022-09-04T20:25:42.776Z,6.30
2022-09-04T20:28:27.405Z,6.50
2022-09-04T20:31:28.444Z,6.70
2022-09-04T20:34:20.412Z,6.40
2022-09-04T20:36:59.328Z,7.00
2022-09-04T20:39:41.103Z,7.00
2022-09-04T20:42:20.772Z,6.10
2022-09-04T20:46:19.748Z,5.60
2022-09-04T20:52:42.529Z,5.80
2022-09-04T20:53:05.901Z,6.20
2022-09-04T20:53:59.249Z,6.10
2022-09-04T20:58:43.747Z,6.00
2022-09-04T21:03:09.236Z,5.90
2022-09-04T21:03:23.994Z,5.40
2022-09-04T21:06:07.411Z,5.90
2022-09-04T21:08:47.633Z,5.50
2022-09-04T21:11:40.962Z,5.70
2022-09-04T21:14:20.333Z,4.80
2022-09-04T21:17:33.599Z,4.50
2022-09-04T21:20:33.895Z,4.50
2022-09-04T21:23:28.290Z,5.10
2022-09-04T21:26:16.302Z,4.80
2022-09-04T21:29:10.665Z,4.40
2022-09-04T21:31:58.039Z,4.20
2022-09-04T21:34:49.721Z,4.60
2022-09-04T21:37:29.747Z,3.60
2022-09-04T21:40:49.797Z,3.60
2022-09-04T21:43:43.659Z,4.00
2022-09-04T21:46:38.709Z,6.30
2022-09-04T21:49:26.574Z,4.10
2022-09-04T21:52:20.060Z,4.00
2022-09-04T21:57:25.902Z,3.80
2022-09-04T22:02:49.371Z,4.00
2022-09-04T22:04:28.739Z,3.20
2022-09-04T22:11:23.442Z,3.90
2022-09-04T22:13:38.522Z,3.20
2022-09-04T22:13:49.429Z,3.40
2022-09-04T22:16:41.971Z,3.80
2022-09-04T22:19:32.057Z,3.30
2022-09-04T22:22:18.995Z,3.40
2022-09-04T22:25:06.900Z,3.50
2022-09-04T22:28:15.405Z,3.60
2022-09-04T22:31:11.627Z,3.00
2022-09-04T22:34:16.163Z,3.50
2022-09-04T22:37:18.199Z,3.10
2022-09-04T22:40:09.583Z,3.40
2022-09-04T22:42:51.600Z,3.10
2022-09-04T22:45:53.319Z,2.90
2022-09-04T22:49:08.020Z,3.20
2022-09-04T22:52:00.859Z,3.10
2022-09-04T22:54:45.443Z,2.70
2022-09-04T22:57:24.827Z,3.20
2022-09-04T23:00:07.675Z,3.60
2022-09-04T23:03:09.208Z,3.10
2022-09-04T23:07:27.999Z,2.80
2022-09-04T23:13:44.859Z,3.00
2022-09-04T23:13:51.185Z,3.20
2022-09-04T23:15:59.267Z,3.20
2022-09-04T23:22:10.031Z,2.80
2022-09-04T23:26:42.858Z,2.60
2022-09-04T23:26:47.343Z,2.60
2022-09-04T23:28:31.781Z,3.20
2022-09-04T23:31:29.089Z,3.30
2022-09-04T23:34:44.083Z,3.50
2022-09-04T23:38:00.690Z,3.40
2022-09-04T23:40:54.772Z,3.10
2022-09-04T23:44:08.232Z,3.10
2022-09-04T23:49:59.582Z,3.10
2022-09-04T23:53:02.109Z,2.80
2022-09-04T23:56:08.443Z,2.80
2022-09-04T23:59:27.664Z,3.10
